Famar Intervention — J8B5444 — position and weather

sailwx.info

Track history (hours):
 
Tides and Currents Weather Stations Pressure Air Temp Water Temp Dewpoint Dewpoint Depression Visibility Wind Speed Wind Dir Waves Ship Positions

Famar Intervention

Last reported at 2017-Sep-14 15:01 UTC. Time now 2017-Sep-20 21:50 UTC.
Position S 04°58' E 011°30'.

Length 53 m; draft 3.7 m.

Type: Other ship. MMSI: 375277000.

Date/timePositionNaut miles runAvg speedWind from/ knotsBaromVisibWave heightAir tempDewpointWater temp
2017-Sep-14 15:01S 04°58' E 011°30'123.5
2017-Sep-14 14:57S 04°59' E 011°29'1123.7
2017-Sep-14 14:30S 05°06' E 011°21'1223.1
2017-Sep-14 14:00S 05°15' E 011°14'10 0.4
2017-Sep-13 10:40S 05°25' E 011°11'423.0
2017-Sep-13 10:30S 05°21' E 011°12'1222.7
2017-Sep-13 10:00S 05°10' E 011°15'1122.3
2017-Sep-13 09:29S 05°00' E 011°21'9 0.5
2017-Sep-12 17:07S 04°58' E 011°29'222.7
2017-Sep-12 17:00S 04°60' E 011°28'1122.5
2017-Sep-12 16:30S 05°08' E 011°19'1122.1
2017-Sep-12 16:00S 05°17' E 011°14'1322.8
2017-Sep-12 15:27S 05°30' E 011°11'1 0.0
2017-Sep-11 12:18S 05°29' E 011°11'721.6
2017-Sep-11 12:00S 05°22' E 011°13'1121.5
2017-Sep-11 11:30S 05°12' E 011°15'1121.2
2017-Sep-11 11:00S 05°04' E 011°22'1121.3
2017-Sep-11 10:29S 04°56' E 011°30'  
2017-Sep-07 17:09S 04°56' E 011°33'321.1
2017-Sep-07 17:00S 04°58' E 011°30'1121.4
2017-Sep-07 16:29S 05°06' E 011°22'1021.5
2017-Sep-07 16:00S 05°13' E 011°15'1121.5
2017-Sep-07 15:30S 05°24' E 011°12'54 1.2
2017-Sep-05 17:41S 04°47' E 011°51'3 6.7
2017-Sep-05 17:13S 04°46' E 011°48'1922.5
2017-Sep-05 16:22S 04°57' E 011°32'822.5
2017-Sep-05 16:00S 05°03' E 011°27'1122.2
2017-Sep-05 15:30S 05°10' E 011°18'1122.1
2017-Sep-05 15:00S 05°20' E 011°14'  
Track history (hours):
 
Tides and Currents Weather Stations Pressure Air Temp Water Temp Dewpoint Dewpoint Depression Visibility Wind Speed Wind Dir Waves Ship Positions

Famar Intervention

Last reported at 2017-Sep-14 15:01 UTC. Time now 2017-Sep-20 21:50 UTC.
Position S 04°58' E 011°30'.

Length 53 m; draft 3.7 m.

Type: Other ship. MMSI: 375277000.

Date/timePositionNaut miles runAvg speedWind from/ knotsBaromVisibWave heightAir tempDewpointWater temp
2017-Sep-14 15:01S 04°58' E 011°30'123.5
2017-Sep-14 14:57S 04°59' E 011°29'1123.7
2017-Sep-14 14:30S 05°06' E 011°21'1223.1
2017-Sep-14 14:00S 05°15' E 011°14'10 0.4
2017-Sep-13 10:40S 05°25' E 011°11'423.0
2017-Sep-13 10:30S 05°21' E 011°12'1222.7
2017-Sep-13 10:00S 05°10' E 011°15'1122.3
2017-Sep-13 09:29S 05°00' E 011°21'9 0.5
2017-Sep-12 17:07S 04°58' E 011°29'222.7
2017-Sep-12 17:00S 04°60' E 011°28'1122.5
2017-Sep-12 16:30S 05°08' E 011°19'1122.1
2017-Sep-12 16:00S 05°17' E 011°14'1322.8
2017-Sep-12 15:27S 05°30' E 011°11'1 0.0
2017-Sep-11 12:18S 05°29' E 011°11'721.6
2017-Sep-11 12:00S 05°22' E 011°13'1121.5
2017-Sep-11 11:30S 05°12' E 011°15'1121.2
2017-Sep-11 11:00S 05°04' E 011°22'1121.3
2017-Sep-11 10:29S 04°56' E 011°30'  
2017-Sep-07 17:09S 04°56' E 011°33'321.1
2017-Sep-07 17:00S 04°58' E 011°30'1121.4
2017-Sep-07 16:29S 05°06' E 011°22'1021.5
2017-Sep-07 16:00S 05°13' E 011°15'1121.5
2017-Sep-07 15:30S 05°24' E 011°12'54 1.2
2017-Sep-05 17:41S 04°47' E 011°51'3 6.7
2017-Sep-05 17:13S 04°46' E 011°48'1922.5
2017-Sep-05 16:22S 04°57' E 011°32'822.5
2017-Sep-05 16:00S 05°03' E 011°27'1122.2
2017-Sep-05 15:30S 05°10' E 011°18'1122.1
2017-Sep-05 15:00S 05°20' E 011°14'  

Dump ship's entire track history